createdAt,value
2022-12-19T05:01:03.759Z,2.72
2022-12-19T05:04:06.539Z,2.72
2022-12-19T05:07:08.685Z,1.97
2022-12-19T05:10:10.998Z,1.83
2022-12-19T05:13:13.038Z,1.77
2022-12-19T05:16:16.084Z,1.78
2022-12-19T05:19:18.496Z,1.74
2022-12-19T05:22:20.836Z,1.77
2022-12-19T05:25:22.898Z,1.96
2022-12-19T05:28:26.434Z,2.10
2022-12-19T05:31:28.533Z,2.05
2022-12-19T05:34:32.842Z,1.79
2022-12-19T05:37:35.102Z,1.81
2022-12-19T05:40:37.462Z,1.89
2022-12-19T05:43:39.591Z,1.82
2022-12-19T05:46:42.120Z,1.81
2022-12-19T05:49:44.307Z,1.80
2022-12-19T05:52:46.599Z,1.83
2022-12-19T05:55:48.693Z,1.69
2022-12-19T05:58:51.109Z,1.76
2022-12-19T06:01:54.370Z,1.99
2022-12-19T06:04:56.874Z,2.52
2022-12-19T06:07:58.985Z,2.50
2022-12-19T06:11:03.864Z,2.63
2022-12-19T06:14:07.455Z,2.35
2022-12-19T06:17:10.043Z,2.36
2022-12-19T06:20:12.406Z,2.54
2022-12-19T06:23:14.927Z,2.40
2022-12-19T06:26:20.162Z,2.37
2022-12-19T06:29:22.678Z,2.57
2022-12-19T06:32:25.090Z,2.68
2022-12-19T06:35:27.429Z,2.65
2022-12-19T06:38:30.347Z,2.66
2022-12-19T06:41:51.465Z,2.81
2022-12-19T06:44:56.098Z,2.86
2022-12-19T06:47:58.981Z,2.91
2022-12-19T06:51:02.031Z,2.88
2022-12-19T06:54:04.559Z,3.10
2022-12-19T06:57:07.717Z,3.33
2022-12-19T07:00:11.330Z,3.52
2022-12-19T07:03:19.319Z,3.38
2022-12-19T07:06:22.854Z,3.31
2022-12-19T07:09:27.197Z,2.88
2022-12-19T07:12:29.573Z,3.47
2022-12-19T07:15:34.114Z,3.22
2022-12-19T07:18:39.849Z,3.30
2022-12-19T07:21:42.157Z,3.45
2022-12-19T07:24:44.647Z,3.56
2022-12-19T07:27:47.789Z,3.43
2022-12-19T07:30:50.188Z,3.47
2022-12-19T07:33:52.297Z,3.54
2022-12-19T07:36:54.655Z,3.61
2022-12-19T07:39:56.753Z,3.81
2022-12-19T07:43:03.149Z,3.71
2022-12-19T07:46:05.420Z,3.61
2022-12-19T07:49:07.913Z,3.42
2022-12-19T07:52:10.460Z,3.08
2022-12-19T07:55:13.525Z,3.22
2022-12-19T07:58:15.901Z,3.07
2022-12-19T08:01:18.575Z,3.03
2022-12-19T08:04:20.968Z,3.01
2022-12-19T08:07:23.019Z,3.08
2022-12-19T08:10:27.004Z,3.41
2022-12-19T08:13:37.211Z,3.08
2022-12-19T08:17:18.262Z,3.47
2022-12-19T08:20:03.382Z,3.04
2022-12-19T08:23:05.829Z,2.95
2022-12-19T08:26:13.021Z,3.19
2022-12-19T08:29:15.330Z,2.88
2022-12-19T08:32:21.145Z,3.27
2022-12-19T08:35:23.910Z,3.05
2022-12-19T08:38:25.838Z,2.74
2022-12-19T08:41:28.202Z,3.08
2022-12-19T08:44:30.960Z,3.34
2022-12-19T08:47:33.260Z,3.54
2022-12-19T08:50:35.295Z,3.48
2022-12-19T08:53:39.426Z,3.19
2022-12-19T08:56:46.174Z,3.42
2022-12-19T08:59:48.995Z,3.50
2022-12-19T09:02:52.092Z,3.53
2022-12-19T09:06:07.015Z,3.40
2022-12-19T09:09:12.740Z,3.21
2022-12-19T09:12:16.270Z,3.15
2022-12-19T09:15:18.336Z,3.48
2022-12-19T09:18:20.610Z,3.88
2022-12-19T09:21:29.397Z,3.90
2022-12-19T09:24:31.879Z,3.76
2022-12-19T09:28:01.229Z,3.48
2022-12-19T09:30:57.699Z,3.71
2022-12-19T09:33:59.848Z,3.34
2022-12-19T09:37:02.418Z,3.15
2022-12-19T09:40:04.931Z,3.35
2022-12-19T09:43:20.921Z,3.82
2022-12-19T09:46:41.756Z,3.96
2022-12-19T09:49:48.297Z,3.93
2022-12-19T09:52:59.523Z,3.94
2022-12-19T09:56:02.924Z,4.04
2022-12-19T09:59:18.530Z,3.86
2022-12-19T10:02:47.081Z,3.82
2022-12-19T10:07:06.860Z,3.69
2022-12-19T10:11:13.964Z,3.73
2022-12-19T10:13:33.714Z,3.84
2022-12-19T10:17:15.877Z,3.78
2022-12-19T10:20:19.614Z,3.95
2022-12-19T10:23:28.021Z,3.82
2022-12-19T10:26:50.230Z,3.58
2022-12-19T10:30:35.962Z,3.72
2022-12-19T10:33:43.366Z,3.94
2022-12-19T10:40:28.927Z,4.28
2022-12-19T10:43:44.437Z,4.59
2022-12-19T10:46:53.160Z,4.68
2022-12-19T10:49:55.334Z,4.57
2022-12-19T10:53:03.767Z,4.40
2022-12-19T10:56:20.449Z,4.48
2022-12-19T10:59:24.668Z,4.44
2022-12-19T11:02:35.858Z,4.14
2022-12-19T11:05:41.293Z,4.07
2022-12-19T11:08:43.397Z,3.98
2022-12-19T11:16:06.591Z,4.27
2022-12-19T11:20:14.596Z,4.39
2022-12-19T11:25:25.173Z,4.00
2022-12-19T11:29:54.531Z,4.31
2022-12-19T11:30:46.073Z,4.26
2022-12-19T11:33:15.853Z,4.29
2022-12-19T11:36:56.695Z,4.40
2022-12-19T11:40:13.501Z,4.55
2022-12-19T11:43:46.660Z,4.55
2022-12-19T11:47:04.172Z,4.66
2022-12-19T11:50:28.529Z,4.60
2022-12-19T11:53:39.552Z,4.86
2022-12-19T11:56:42.048Z,4.51
2022-12-19T11:59:45.517Z,4.26
2022-12-19T12:03:25.690Z,4.41
2022-12-19T12:06:34.194Z,4.47
2022-12-19T12:14:06.243Z,4.13
2022-12-19T12:26:25.617Z,4.33
2022-12-19T12:31:10.597Z,4.75
2022-12-19T12:31:15.190Z,4.30
2022-12-19T12:31:44.389Z,4.78
2022-12-19T12:31:51.154Z,4.81
2022-12-19T12:35:46.739Z,4.48
2022-12-19T12:40:42.495Z,4.16
2022-12-19T12:43:50.392Z,4.42
2022-12-19T12:47:20.621Z,4.55
2022-12-19T12:50:27.102Z,4.36
2022-12-19T12:53:37.151Z,4.50
2022-12-19T12:56:40.571Z,4.56
2022-12-19T12:59:45.789Z,4.65
2022-12-19T13:03:18.740Z,4.46
2022-12-19T13:06:32.319Z,4.23
2022-12-19T13:09:36.686Z,4.26
2022-12-19T13:13:02.804Z,4.08
2022-12-19T13:16:24.993Z,3.90
2022-12-19T13:19:30.721Z,4.02
2022-12-19T13:22:32.977Z,4.25
2022-12-19T13:25:35.453Z,4.34
2022-12-19T13:28:40.470Z,4.37
2022-12-19T13:32:10.845Z,4.21
2022-12-19T13:37:05.264Z,4.18
2022-12-19T13:40:01.585Z,4.17
2022-12-19T13:42:35.197Z,4.22
2022-12-19T13:45:40.796Z,4.53
2022-12-19T13:49:10.725Z,4.27
2022-12-19T13:52:16.272Z,4.32
2022-12-19T13:55:19.679Z,4.39
2022-12-19T13:58:47.611Z,4.08
2022-12-19T14:01:53.200Z,3.66
2022-12-19T14:04:56.232Z,4.05
2022-12-19T14:07:59.687Z,4.38
2022-12-19T14:11:44.450Z,4.36
2022-12-19T14:14:43.024Z,4.36
2022-12-19T14:17:51.779Z,4.54
2022-12-19T14:22:03.797Z,4.27
2022-12-19T14:24:34.243Z,3.94
2022-12-19T14:28:24.349Z,3.90
2022-12-19T14:31:09.055Z,4.29
2022-12-19T14:39:23.899Z,3.83
2022-12-19T14:41:46.308Z,3.60
2022-12-19T14:52:08.384Z,3.95
2022-12-19T14:54:21.438Z,3.99
2022-12-19T14:54:38.007Z,4.02
2022-12-19T14:56:19.613Z,4.10
2022-12-19T14:58:52.565Z,3.92
2022-12-19T15:02:03.881Z,3.64
2022-12-19T15:05:13.045Z,3.34
2022-12-19T15:10:40.933Z,3.48
2022-12-19T15:14:46.560Z,3.75
2022-12-19T15:15:48.314Z,3.82
2022-12-19T15:18:53.335Z,3.64
2022-12-19T15:21:55.467Z,3.41
2022-12-19T15:24:57.802Z,3.25
2022-12-19T15:28:00.399Z,3.57
2022-12-19T15:31:09.869Z,3.73
2022-12-19T15:34:37.200Z,3.74
2022-12-19T15:37:45.192Z,3.37
2022-12-19T15:40:47.870Z,3.47
2022-12-19T15:44:07.496Z,3.69
2022-12-19T15:47:36.882Z,3.52
2022-12-19T15:50:39.175Z,3.26
2022-12-19T15:53:42.009Z,3.61
2022-12-19T15:56:49.847Z,3.50
2022-12-19T15:59:52.186Z,3.38
2022-12-19T16:06:18.387Z,3.58
2022-12-19T16:09:22.146Z,3.40
2022-12-19T16:12:31.532Z,3.18
2022-12-19T16:15:34.552Z,3.21
2022-12-19T16:18:37.070Z,3.10
2022-12-19T16:21:39.121Z,3.25
2022-12-19T16:24:41.476Z,3.00
2022-12-19T16:27:44.361Z,3.29
2022-12-19T16:30:47.575Z,2.89
2022-12-19T16:33:49.624Z,2.80
2022-12-19T16:36:52.136Z,2.79
2022-12-19T16:39:54.177Z,3.32
2022-12-19T16:43:13.695Z,3.30
